Time;durP1;ratioP1;P1;durP2;ratioP2;P2;SDS_P1;SDS_P2;PMS_P1;PMS_P2;Temp;Humidity;BMP_temperature;BMP_pressure;BME280_temperature;BME280_humidity;BME280_pressure;Samples;Min_cycle;Max_cycle;Signal;HPM_P1;HPM_P2
2022/12/11 00:02:19;;;;;;;;;;;;;;;;;;5056418;28;7267;-73
2022/12/11 00:04:45;;;;;;;;;;;;;;;;;;5056609;28;6951;-73
2022/12/11 00:07:11;;;;;;;;;;;;;;;;;;5056572;28;7048;-73
2022/12/11 00:09:36;;;;;;;;;;;;;;;;;;5056319;28;7128;-73
2022/12/11 00:12:04;;;;;;;;;;;;;;;;;;5056273;28;7185;-73
2022/12/11 00:14:51;;;;;;;;;;;;;;;;;;5056366;28;7492;-73
2022/12/11 00:17:17;;;;;;;;;;;;;;;;;;5057098;28;7149;-72
2022/12/11 00:19:42;;;;;;;;;;;;;;;;;;5056024;28;7789;-64
2022/12/11 00:22:37;;;;;;;;;;;;;;;;;;5056298;28;7379;-64
2022/12/11 00:25:03;;;;;;;;;;;;;;;;;;5056980;28;6920;-64
2022/12/11 00:27:28;;;;;;;;;;;;;;;;;;5056219;28;7214;-64
2022/12/11 00:29:55;;;;;;;;;;;;;;;;;;5056400;28;6873;-64
2022/12/11 00:32:21;;;;;;;;;;;;;;;;;;5055998;28;7281;-64
2022/12/11 00:34:52;;;;;;;;;;;;;;;;;;5055832;28;7845;-64
2022/12/11 00:37:18;;;;;;;;;;;;;;;;;;5056002;28;7126;-64
2022/12/11 00:39:44;;;;;;;;;;;;;;;;;;5055935;28;6915;-64
2022/12/11 00:45:01;;;;;;;;;;;;;;;;;;5056559;28;6995;-64
2022/12/11 00:47:26;;;;;;;;;;;;;;;;;;5055843;28;7398;-64
2022/12/11 00:49:52;;;;;;;;;;;;;;;;;;5055151;28;7008;-64
2022/12/11 00:52:32;;;;;;;;;;;;;;;;;;5055607;28;7408;-64
2022/12/11 00:54:57;;;;;;;;;;;;;;;;;;5055631;28;6953;-64
2022/12/11 00:57:23;;;;;;;;;;;;;;;;;;5055705;28;7297;-64
2022/12/11 01:00:26;;;;;;;;;;;;;;;;;;5055531;28;7128;-64
2022/12/11 01:03:09;;;;;;;;;;;;;;;;;;5055729;28;7192;-64
2022/12/11 01:05:36;;;;;;;;;;;;;;;;;;5055574;28;6935;-64
2022/12/11 01:08:02;;;;;;;;;;;;;;;;;;5055358;28;7059;-64
2022/12/11 01:10:45;;;;;;;;;;;;;;;;;;5055116;28;7129;-64
2022/12/11 01:13:10;;;;;;;;;;;;;;;;;;5054752;28;7236;-64
2022/12/11 01:15:41;;;;;;;;;;;;;;;;;;5055380;28;7263;-64
2022/12/11 01:18:06;;;;;;;;;;;;;;;;;;5055192;28;7080;-64
2022/12/11 01:20:32;;;;;;;;;;;;;;;;;;5055673;28;7058;-64
2022/12/11 01:26:07;;;;;;;;;;;;;;;;;;5055217;28;6932;-64
2022/12/11 01:28:33;;;;;;;;;;;;;;;;;;5055137;28;7020;-64
2022/12/11 01:30:59;;;;;;;;;;;;;;;;;;5055205;28;7105;-64
2022/12/11 01:33:24;;;;;;;;;;;;;;;;;;5054674;28;6959;-64
2022/12/11 01:35:50;;;;;;;;;;;;;;;;;;5054557;28;7416;-64
2022/12/11 01:38:16;;;;;;;;;;;;;;;;;;5054957;28;7023;-64
2022/12/11 01:40:50;;;;;;;;;;;;;;;;;;5054853;28;7700;-64
2022/12/11 01:43:35;;;;;;;;;;;;;;;;;;5054837;28;7282;-64
2022/12/11 01:46:00;;;;;;;;;;;;;;;;;;5054714;28;7029;-64
2022/12/11 01:48:28;;;;;;;;;;;;;;;;;;5053685;28;7119;-64
2022/12/11 01:51:04;;;;;;;;;;;;;;;;;;5054346;28;6926;-64
2022/12/11 01:53:34;;;;;;;;;;;;;;;;;;5055452;28;7264;-64
2022/12/11 01:56:00;;;;;;;;;;;;;;;;;;5054534;28;7422;-64
2022/12/11 01:58:31;;;;;;;;;;;;;;;;;;5054988;28;7315;-65
2022/12/11 02:00:57;;;;;;;;;;;;;;;;;;5054238;28;6947;-65
2022/12/11 02:03:24;;;;;;;;;;;;;;;;;;5054368;28;7168;-65
2022/12/11 02:05:49;;;;;;;;;;;;;;;;;;5054691;28;7126;-65
2022/12/11 02:11:26;;;;;;;;;;;;;;;;;;5054155;28;7046;-73
2022/12/11 02:14:04;;;;;;;;;;;;;;;;;;5054588;28;7049;-73
2022/12/11 02:16:50;;;;;;;;;;;;;;;;;;5054905;28;7225;-73
2022/12/11 02:19:41;;;;;;;;;;;;;;;;;;5043495;28;7240;-65
2022/12/11 02:22:11;;;;;;;;;;;;;;;;;;5055308;28;7362;-65
2022/12/11 02:24:40;;;;;;;;;;;;;;;;;;5054809;28;6942;-65
2022/12/11 02:27:27;;;;;;;;;;;;;;;;;;5054372;28;7189;-65
2022/12/11 02:30:24;;;;;;;;;;;;;;;;;;5054077;28;6869;-65
2022/12/11 02:33:02;;;;;;;;;;;;;;;;;;5052732;28;7257;-65
2022/12/11 02:35:38;;;;;;;;;;;;;;;;;;5055040;28;7223;-65
2022/12/11 02:38:08;;;;;;;;;;;;;;;;;;5054328;28;7431;-65
2022/12/11 02:40:49;;;;;;;;;;;;;;;;;;5054246;28;7166;-65
2022/12/11 02:43:16;;;;;;;;;;;;;;;;;;5054360;28;7236;-65
2022/12/11 02:45:46;;;;;;;;;;;;;;;;;;5054460;28;7211;-65
2022/12/11 02:48:31;;;;;;;;;;;;;;;;;;5054227;28;6969;-65
2022/12/11 02:51:00;;;;;;;;;;;;;;;;;;5054249;28;7393;-65
2022/12/11 02:53:28;;;;;;;;;;;;;;;;;;5054873;28;7257;-65
2022/12/11 02:56:03;;;;;;;;;;;;;;;;;;5054096;28;7020;-65
2022/12/11 02:58:32;;;;;;;;;;;;;;;;;;5054215;28;6994;-65
2022/12/11 03:00:58;;;;;;;;;;;;;;;;;;5056067;28;6967;-65
2022/12/11 03:03:56;;;;;;;;;;;;;;;;;;5057837;28;7189;-65
2022/12/11 03:06:27;;;;;;;;;;;;;;;;;;5057736;28;7255;-64
2022/12/11 03:08:52;;;;;;;;;;;;;;;;;;5057651;28;7130;-65
2022/12/11 03:11:18;;;;;;;;;;;;;;;;;;5057500;28;7167;-65
2022/12/11 03:13:43;;;;;;;;;;;;;;;;;;5039637;28;7179;-65
2022/12/11 03:16:42;;;;;;;;;;;;;;;;;;5057580;28;7024;-64
2022/12/11 03:19:11;;;;;;;;;;;;;;;;;;5057477;28;7220;-65
2022/12/11 03:21:49;;;;;;;;;;;;;;;;;;5057513;28;7048;-65
2022/12/11 03:24:26;;;;;;;;;;;;;;;;;;5057468;28;7246;-65
2022/12/11 03:27:03;;;;;;;;;;;;;;;;;;5057304;28;7599;-65
2022/12/11 03:29:41;;;;;;;;;;;;;;;;;;5057257;28;6933;-65
2022/12/11 03:32:18;;;;;;;;;;;;;;;;;;5057458;28;7425;-64
2022/12/11 03:34:51;;;;;;;;;;;;;;;;;;5039770;28;7010;-65
2022/12/11 03:37:19;;;;;;;;;;;;;;;;;;5057294;28;6996;-65
2022/12/11 03:42:50;;;;;;;;;;;;;;;;;;5056856;28;6943;-65
2022/12/11 03:45:25;;;;;;;;;;;;;;;;;;5057785;28;7602;-65
2022/12/11 03:47:53;;;;;;;;;;;;;;;;;;5056927;28;7406;-65
2022/12/11 03:50:22;;;;;;;;;;;;;;;;;;5056328;28;7119;-64
2022/12/11 03:52:49;;;;;;;;;;;;;;;;;;5056860;28;7296;-65
2022/12/11 03:55:16;;;;;;;;;;;;;;;;;;5056591;28;7039;-65
2022/12/11 03:57:42;;;;;;;;;;;;;;;;;;5056400;28;7433;-65
2022/12/11 04:00:12;;;;;;;;;;;;;;;;;;5056542;28;7220;-65
2022/12/11 04:02:39;;;;;;;;;;;;;;;;;;5056562;28;7281;-65
2022/12/11 04:05:05;;;;;;;;;;;;;;;;;;5056571;28;6821;-65
2022/12/11 04:07:30;;;;;;;;;;;;;;;;;;5056593;28;7228;-65
2022/12/11 04:09:59;;;;;;;;;;;;;;;;;;5056363;28;7081;-65
2022/12/11 04:12:24;;;;;;;;;;;;;;;;;;5055897;28;6928;-65
2022/12/11 04:15:04;;;;;;;;;;;;;;;;;;5038528;28;8326;-65
2022/12/11 04:25:47;;;;;;;;;;;;;;;;;;5056534;28;6800;-65
2022/12/11 04:28:19;;;;;;;;;;;;;;;;;;5056411;28;7048;-65
2022/12/11 04:30:48;;;;;;;;;;;;;;;;;;5037920;28;8797;-65
2022/12/11 04:33:16;;;;;;;;;;;;;;;;;;5055969;28;7173;-65
2022/12/11 04:35:41;;;;;;;;;;;;;;;;;;5037966;28;8596;-65
2022/12/11 04:38:12;;;;;;;;;;;;;;;;;;5056006;28;6969;-65
2022/12/11 04:40:38;;;;;;;;;;;;;;;;;;5055855;28;6866;-65
2022/12/11 04:43:05;;;;;;;;;;;;;;;;;;5055880;28;7118;-65
2022/12/11 04:45:30;;;;;;;;;;;;;;;;;;5055846;28;6987;-73
2022/12/11 04:47:56;;;;;;;;;;;;;;;;;;5055907;28;7135;-73
2022/12/11 04:50:22;;;;;;;;;;;;;;;;;;5055330;28;7089;-73
2022/12/11 04:52:48;;;;;;;;;;;;;;;;;;5055619;28;7108;-73
2022/12/11 04:55:14;;;;;;;;;;;;;;;;;;5055327;28;7473;-73
2022/12/11 04:57:40;;;;;;;;;;;;;;;;;;5056283;28;7152;-74
2022/12/11 05:00:07;;;;;;;;;;;;;;;;;;5055502;28;7114;-73
2022/12/11 05:02:35;;;;;;;;;;;;;;;;;;5055567;28;7003;-73
2022/12/11 05:05:02;;;;;;;;;;;;;;;;;;5055163;28;8112;-73
2022/12/11 05:07:27;;;;;;;;;;;;;;;;;;5055547;28;7542;-73
2022/12/11 05:09:53;;;;;;;;;;;;;;;;;;5055027;28;7323;-73
2022/12/11 05:12:20;;;;;;;;;;;;;;;;;;5037214;28;7042;-73
2022/12/11 05:14:46;;;;;;;;;;;;;;;;;;5055325;28;7162;-73
2022/12/11 05:20:23;;;;;;;;;;;;;;;;;;5055010;28;7397;-73
2022/12/11 05:22:49;;;;;;;;;;;;;;;;;;5054179;28;8173;-65
2022/12/11 05:28:37;;;;;;;;;;;;;;;;;;5055234;28;7081;-64
2022/12/11 05:31:05;;;;;;;;;;;;;;;;;;5055026;28;7154;-65
2022/12/11 05:33:31;;;;;;;;;;;;;;;;;;5054898;28;6862;-64
2022/12/11 05:35:56;;;;;;;;;;;;;;;;;;5054463;28;7119;-73
2022/12/11 05:38:33;;;;;;;;;;;;;;;;;;5054732;28;7133;-73
2022/12/11 05:41:02;;;;;;;;;;;;;;;;;;5054825;28;7401;-65
2022/12/11 05:43:38;;;;;;;;;;;;;;;;;;5037431;28;7299;-65
2022/12/11 05:46:05;;;;;;;;;;;;;;;;;;5054786;28;7091;-64
2022/12/11 05:48:31;;;;;;;;;;;;;;;;;;5054588;28;7127;-65
2022/12/11 05:50:58;;;;;;;;;;;;;;;;;;5054742;28;7127;-64
2022/12/11 05:53:29;;;;;;;;;;;;;;;;;;5054607;28;7176;-73
2022/12/11 05:56:01;;;;;;;;;;;;;;;;;;5054449;28;6920;-73
2022/12/11 05:58:53;;;;;;;;;;;;;;;;;;5054650;28;6896;-73
2022/12/11 06:01:22;;;;;;;;;;;;;;;;;;5054425;28;7157;-73
2022/12/11 06:04:10;;;;;;;;;;;;;;;;;;5054701;28;7172;-73
2022/12/11 06:06:36;;;;;;;;;;;;;;;;;;5054577;28;7068;-73
2022/12/11 06:09:10;;;;;;;;;;;;;;;;;;5054344;28;7901;-73
2022/12/11 06:11:36;;;;;;;;;;;;;;;;;;5054468;28;7070;-73
2022/12/11 06:17:01;;;;;;;;;;;;;;;;;;5054603;28;6772;-73
2022/12/11 06:19:27;;;;;;;;;;;;;;;;;;5054459;28;7211;-73
2022/12/11 06:22:00;;;;;;;;;;;;;;;;;;5054477;28;7236;-73
2022/12/11 06:24:26;;;;;;;;;;;;;;;;;;5054464;28;7237;-73
2022/12/11 06:26:51;;;;;;;;;;;;;;;;;;5054186;28;7054;-73
2022/12/11 06:29:17;;;;;;;;;;;;;;;;;;5054345;28;7409;-73
2022/12/11 06:31:43;;;;;;;;;;;;;;;;;;5054349;28;7167;-73
2022/12/11 06:34:12;;;;;;;;;;;;;;;;;;5037837;28;8703;-71
2022/12/11 06:36:49;;;;;;;;;;;;;;;;;;5057946;28;7255;-72
2022/12/11 06:39:42;;;;;;;;;;;;;;;;;;5058093;28;7282;-71
2022/12/11 06:42:08;;;;;;;;;;;;;;;;;;5057885;28;7870;-68
2022/12/11 06:44:35;;;;;;;;;;;;;;;;;;5058183;28;7081;-65
2022/12/11 06:47:02;;;;;;;;;;;;;;;;;;5058052;28;7186;-65
2022/12/11 06:49:33;;;;;;;;;;;;;;;;;;5057827;28;7258;-65
2022/12/11 06:51:59;;;;;;;;;;;;;;;;;;5057806;28;7259;-65
2022/12/11 06:54:26;;;;;;;;;;;;;;;;;;5029830;28;7015;-65
2022/12/11 06:59:57;;;;;;;;;;;;;;;;;;5017076;28;6928;-65
2022/12/11 07:02:23;;;;;;;;;;;;;;;;;;4999183;28;7188;-64
2022/12/11 07:04:58;;;;;;;;;;;;;;;;;;5017541;28;7004;-65
2022/12/11 07:07:23;;;;;;;;;;;;;;;;;;5017688;28;6944;-65
2022/12/11 07:09:53;;;;;;;;;;;;;;;;;;5017773;28;7478;-65
2022/12/11 07:12:18;;;;;;;;;;;;;;;;;;5017721;28;6976;-64
2022/12/11 07:14:45;;;;;;;;;;;;;;;;;;5017046;28;6926;-64
2022/12/11 07:17:10;;;;;;;;;;;;;;;;;;5017453;28;6968;-64
2022/12/11 07:19:51;;;;;;;;;;;;;;;;;;5016964;28;7235;-64
2022/12/11 07:22:17;;;;;;;;;;;;;;;;;;5017765;28;7187;-64
2022/12/11 07:24:42;;;;;;;;;;;;;;;;;;5017693;28;7111;-64
2022/12/11 07:27:08;;;;;;;;;;;;;;;;;;5026028;28;7163;-73
2022/12/11 07:32:52;;;;;;;;;;;;;;;;;;5036882;28;6959;-73
2022/12/11 07:35:17;;;;;;;;;;;;;;;;;;5037154;28;7280;-73
2022/12/11 07:38:10;;;;;;;;;;;;;;;;;;5037274;28;6912;-73
2022/12/11 07:40:42;;;;;;;;;;;;;;;;;;5038136;28;7332;-73
2022/12/11 07:43:07;;;;;;;;;;;;;;;;;;5036982;28;7415;-73
2022/12/11 07:45:33;;;;;;;;;;;;;;;;;;5034761;28;7401;-75
2022/12/11 07:51:13;;;;;;;;;;;;;;;;;;5055767;28;6999;-73
2022/12/11 07:53:57;;;;;;;;;;;;;;;;;;5056411;28;7924;-73
2022/12/11 07:56:23;;;;;;;;;;;;;;;;;;5057092;28;6879;-64
2022/12/11 07:58:48;;;;;;;;;;;;;;;;;;5038740;28;8446;-64
2022/12/11 08:01:42;;;;;;;;;;;;;;;;;;5056792;28;7360;-64
2022/12/11 08:04:09;;;;;;;;;;;;;;;;;;5056528;28;7195;-64
2022/12/11 08:07:13;;;;;;;;;;;;;;;;;;5041275;28;7177;-64
2022/12/11 08:09:51;;;;;;;;;;;;;;;;;;5014683;28;7151;-64
2022/12/11 08:12:17;;;;;;;;;;;;;;;;;;5014732;28;7064;-64
2022/12/11 08:17:45;;;;;;;;;;;;;;;;;;5014661;28;6713;-64
2022/12/11 08:20:10;;;;;;;;;;;;;;;;;;5014330;28;7140;-65
2022/12/11 08:22:36;;;;;;;;;;;;;;;;;;5014495;28;7074;-64
2022/12/11 08:25:02;;;;;;;;;;;;;;;;;;5014506;28;7202;-64
2022/12/11 08:27:28;;;;;;;;;;;;;;;;;;5014321;28;7122;-64
2022/12/11 08:30:13;;;;;;;;;;;;;;;;;;5014015;28;7168;-64
2022/12/11 08:32:39;;;;;;;;;;;;;;;;;;5014197;28;7196;-64
2022/12/11 08:35:16;;;;;;;;;;;;;;;;;;4997912;28;8895;-64
2022/12/11 08:37:42;;;;;;;;;;;;;;;;;;5014192;28;7105;-65
2022/12/11 08:40:09;;;;;;;;;;;;;;;;;;5010006;28;8880;-65
2022/12/11 08:42:36;;;;;;;;;;;;;;;;;;5035707;28;7238;-73
2022/12/11 08:45:02;;;;;;;;;;;;;;;;;;5038101;28;6975;-73
2022/12/11 08:47:28;;;;;;;;;;;;;;;;;;5055668;28;7153;-73
2022/12/11 08:50:02;;;;;;;;;;;;;;;;;;5055441;28;7015;-73
2022/12/11 08:52:27;;;;;;;;;;;;;;;;;;5055882;28;7167;-73
2022/12/11 08:55:22;;;;;;;;;;;;;;;;;;5056795;28;7040;-73
2022/12/11 08:57:48;;;;;;;;;;;;;;;;;;5054363;28;7060;-73
2022/12/11 09:00:21;;;;;;;;;;;;;;;;;;5055091;28;7154;-72
2022/12/11 09:02:47;;;;;;;;;;;;;;;;;;5055360;28;7176;-72
2022/12/11 09:05:13;;;;;;;;;;;;;;;;;;5037316;28;8450;-73
2022/12/11 09:07:38;;;;;;;;;;;;;;;;;;5055304;28;7020;-73
2022/12/11 09:12:56;;;;;;;;;;;;;;;;;;5055396;28;6978;-73
2022/12/11 09:15:31;;;;;;;;;;;;;;;;;;5054926;28;7078;-73
2022/12/11 09:17:57;;;;;;;;;;;;;;;;;;5055290;28;7112;-73
2022/12/11 09:20:25;;;;;;;;;;;;;;;;;;5054946;28;7533;-73
2022/12/11 09:22:51;;;;;;;;;;;;;;;;;;5055071;28;7500;-72
2022/12/11 09:25:17;;;;;;;;;;;;;;;;;;5055123;28;7181;-73
2022/12/11 09:27:43;;;;;;;;;;;;;;;;;;5054792;28;6913;-73
2022/12/11 09:30:15;;;;;;;;;;;;;;;;;;5054436;28;7096;-73
2022/12/11 09:32:41;;;;;;;;;;;;;;;;;;5054688;28;7117;-72
2022/12/11 09:35:07;;;;;;;;;;;;;;;;;;5036984;28;8522;-73
2022/12/11 09:37:33;;;;;;;;;;;;;;;;;;5054822;28;7089;-72
2022/12/11 09:40:01;;;;;;;;;;;;;;;;;;5054776;28;7107;-72
2022/12/11 09:45:26;;;;;;;;;;;;;;;;;;5054684;28;6760;-73
2022/12/11 09:48:10;;;;;;;;;;;;;;;;;;5055230;28;7134;-72
2022/12/11 09:51:07;;;;;;;;;;;;;;;;;;5054035;28;6829;-72
2022/12/11 09:53:35;;;;;;;;;;;;;;;;;;5054698;28;7314;-73
2022/12/11 09:56:10;;;;;;;;;;;;;;;;;;5054443;28;7264;-72
2022/12/11 09:58:51;;;;;;;;;;;;;;;;;;5054642;28;7359;-73
2022/12/11 10:04:33;;;;;;;;;;;;;;;;;;5054613;28;6876;-73
2022/12/11 10:07:10;;;;;;;;;;;;;;;;;;5054425;28;7148;-73
2022/12/11 10:09:52;;;;;;;;;;;;;;;;;;5056639;28;7403;-72
2022/12/11 10:12:51;;;;;;;;;;;;;;;;;;5058925;28;7514;-72
2022/12/11 10:15:31;;;;;;;;;;;;;;;;;;5058661;28;7241;-73
2022/12/11 10:17:59;;;;;;;;;;;;;;;;;;5058699;28;7462;-73
2022/12/11 10:20:31;;;;;;;;;;;;;;;;;;5058614;28;7104;-73
2022/12/11 10:22:58;;;;;;;;;;;;;;;;;;5058457;28;7165;-72
2022/12/11 10:25:47;;;;;;;;;;;;;;;;;;5058659;28;6970;-73
2022/12/11 10:28:14;;;;;;;;;;;;;;;;;;5058082;28;7095;-64
2022/12/11 10:30:46;;;;;;;;;;;;;;;;;;5058262;28;7588;-64
2022/12/11 10:36:19;;;;;;;;;;;;;;;;;;5058177;28;6947;-64
2022/12/11 10:38:46;;;;;;;;;;;;;;;;;;5058263;28;7127;-64
2022/12/11 10:41:36;;;;;;;;;;;;;;;;;;5058133;28;6936;-64
2022/12/11 10:44:24;;;;;;;;;;;;;;;;;;5058161;28;7302;-64
2022/12/11 10:47:05;;;;;;;;;;;;;;;;;;5057793;28;7845;-64
2022/12/11 10:49:33;;;;;;;;;;;;;;;;;;5055194;28;8657;-64
2022/12/11 10:52:17;;;;;;;;;;;;;;;;;;5057781;28;7889;-64
2022/12/11 10:54:47;;;;;;;;;;;;;;;;;;5059069;28;6991;-64
2022/12/11 10:57:15;;;;;;;;;;;;;;;;;;5057587;28;6941;-64
2022/12/11 10:59:46;;;;;;;;;;;;;;;;;;5057793;28;7569;-64
2022/12/11 11:02:24;;;;;;;;;;;;;;;;;;5057750;28;6972;-64
2022/12/11 11:04:51;;;;;;;;;;;;;;;;;;5057811;28;7001;-64
2022/12/11 11:10:50;;;;;;;;;;;;;;;;;;5057563;28;6927;-73
2022/12/11 11:16:21;;;;;;;;;;;;;;;;;;5057381;28;6980;-73
2022/12/11 11:19:08;;;;;;;;;;;;;;;;;;5057527;28;7272;-73
2022/12/11 11:21:35;;;;;;;;;;;;;;;;;;5057160;28;7581;-73
2022/12/11 11:24:00;;;;;;;;;;;;;;;;;;5057458;28;7279;-73
2022/12/11 11:26:30;;;;;;;;;;;;;;;;;;5057264;28;7444;-74
2022/12/11 11:28:56;;;;;;;;;;;;;;;;;;5057825;28;7125;-73
2022/12/11 11:31:34;;;;;;;;;;;;;;;;;;5057231;28;7141;-73
2022/12/11 11:34:04;;;;;;;;;;;;;;;;;;5057125;28;7419;-73
2022/12/11 11:45:43;;;;;;;;;;;;;;;;;;5057087;28;7393;-64
2022/12/11 11:48:35;;;;;;;;;;;;;;;;;;5056963;28;7288;-64
2022/12/11 11:51:25;;;;;;;;;;;;;;;;;;5057172;28;7102;-64
2022/12/11 11:53:55;;;;;;;;;;;;;;;;;;5056821;28;7248;-64
2022/12/11 11:56:36;;;;;;;;;;;;;;;;;;5056547;28;7453;-64
2022/12/11 11:59:11;;;;;;;;;;;;;;;;;;5056270;28;8304;-64
2022/12/11 12:01:39;;;;;;;;;;;;;;;;;;5056910;28;7213;-64
2022/12/11 12:07:11;;;;;;;;;;;;;;;;;;5056389;28;6923;-64
2022/12/11 12:09:54;;;;;;;;;;;;;;;;;;5056563;28;6944;-64
2022/12/11 12:12:29;;;;;;;;;;;;;;;;;;5056486;28;7181;-64
2022/12/11 12:15:03;;;;;;;;;;;;;;;;;;5056459;28;7409;-64
2022/12/11 12:17:52;;;;;;;;;;;;;;;;;;5056473;28;7174;-64
2022/12/11 12:20:23;;;;;;;;;;;;;;;;;;5056178;28;7140;-64
2022/12/11 12:22:52;;;;;;;;;;;;;;;;;;5056350;28;6977;-64
2022/12/11 12:25:39;;;;;;;;;;;;;;;;;;5056071;28;6978;-64
2022/12/11 12:28:24;;;;;;;;;;;;;;;;;;5056089;28;6841;-64
2022/12/11 12:30:55;;;;;;;;;;;;;;;;;;5056159;28;6952;-64
2022/12/11 12:33:45;;;;;;;;;;;;;;;;;;5055817;28;6900;-64
2022/12/11 12:39:30;;;;;;;;;;;;;;;;;;5055864;28;6971;-64
2022/12/11 12:42:28;;;;;;;;;;;;;;;;;;5055865;28;7445;-64
2022/12/11 12:45:15;;;;;;;;;;;;;;;;;;5056359;28;7126;-64
2022/12/11 12:47:43;;;;;;;;;;;;;;;;;;5055889;28;6807;-64
2022/12/11 12:50:16;;;;;;;;;;;;;;;;;;5055403;28;7121;-64
2022/12/11 12:52:47;;;;;;;;;;;;;;;;;;5055363;28;7012;-64
2022/12/11 13:01:20;;;;;;;;;;;;;;;;;;5055972;28;6772;-64
2022/12/11 13:03:54;;;;;;;;;;;;;;;;;;5056354;28;7404;-64
2022/12/11 13:06:42;;;;;;;;;;;;;;;;;;5055622;28;6998;-64
2022/12/11 13:09:20;;;;;;;;;;;;;;;;;;5051898;28;6830;-64
2022/12/11 13:11:53;;;;;;;;;;;;;;;;;;5035269;28;7117;-64
2022/12/11 13:14:47;;;;;;;;;;;;;;;;;;5034919;28;7139;-64
2022/12/11 13:17:18;;;;;;;;;;;;;;;;;;5035380;28;7154;-64
2022/12/11 13:19:44;;;;;;;;;;;;;;;;;;5035264;28;7238;-64
2022/12/11 13:31:13;;;;;;;;;;;;;;;;;;5053029;28;6697;-73
2022/12/11 13:33:46;;;;;;;;;;;;;;;;;;5055101;28;7532;-73
2022/12/11 13:36:30;;;;;;;;;;;;;;;;;;5037431;28;8416;-73
2022/12/11 13:39:05;;;;;;;;;;;;;;;;;;5054680;28;7504;-73
2022/12/11 13:41:55;;;;;;;;;;;;;;;;;;5054478;28;7078;-73
2022/12/11 13:44:26;;;;;;;;;;;;;;;;;;5053663;28;7770;-72
2022/12/11 13:50:01;;;;;;;;;;;;;;;;;;5054436;28;6896;-73
2022/12/11 13:52:52;;;;;;;;;;;;;;;;;;5054464;28;6962;-73
2022/12/11 13:55:23;;;;;;;;;;;;;;;;;;5054254;28;7129;-73
2022/12/11 13:57:57;;;;;;;;;;;;;;;;;;5036633;28;8441;-75
2022/12/11 14:00:24;;;;;;;;;;;;;;;;;;5054599;28;7138;-73
2022/12/11 14:03:06;;;;;;;;;;;;;;;;;;5054475;28;7241;-73
2022/12/11 14:05:33;;;;;;;;;;;;;;;;;;5054425;28;7522;-73
2022/12/11 14:08:06;;;;;;;;;;;;;;;;;;5036569;28;8647;-73
2022/12/11 14:10:32;;;;;;;;;;;;;;;;;;5042000;28;7196;-73
2022/12/11 14:13:22;;;;;;;;;;;;;;;;;;5034407;28;7194;-73
2022/12/11 14:15:48;;;;;;;;;;;;;;;;;;5034477;28;7332;-73
2022/12/11 14:18:31;;;;;;;;;;;;;;;;;;5034448;28;7406;-73
2022/12/11 14:21:02;;;;;;;;;;;;;;;;;;5034526;28;7079;-73
2022/12/11 14:23:34;;;;;;;;;;;;;;;;;;5034179;28;7168;-73
2022/12/11 14:26:01;;;;;;;;;;;;;;;;;;5034439;28;7066;-72
2022/12/11 14:37:43;;;;;;;;;;;;;;;;;;5033878;28;6708;-73
2022/12/11 14:40:14;;;;;;;;;;;;;;;;;;5032428;28;6818;-64
2022/12/11 14:43:08;;;;;;;;;;;;;;;;;;5034244;28;7016;-64
2022/12/11 14:45:37;;;;;;;;;;;;;;;;;;5034166;28;7582;-64
2022/12/11 14:51:10;;;;;;;;;;;;;;;;;;5054241;28;6718;-64
2022/12/11 14:56:38;;;;;;;;;;;;;;;;;;5056305;28;6701;-64
2022/12/11 14:59:22;;;;;;;;;;;;;;;;;;5057870;28;7127;-64
2022/12/11 15:05:09;;;;;;;;;;;;;;;;;;5057871;28;6788;-64
2022/12/11 15:08:09;;;;;;;;;;;;;;;;;;5057589;28;7046;-64
2022/12/11 15:10:40;;;;;;;;;;;;;;;;;;5057368;28;7220;-64
2022/12/11 15:13:22;;;;;;;;;;;;;;;;;;5057514;28;7103;-64
2022/12/11 15:15:47;;;;;;;;;;;;;;;;;;5057410;28;6941;-64
2022/12/11 15:21:18;;;;;;;;;;;;;;;;;;5057230;28;6701;-64
2022/12/11 15:23:51;;;;;;;;;;;;;;;;;;5057725;28;7156;-64
2022/12/11 15:26:17;;;;;;;;;;;;;;;;;;5056552;28;7870;-64
2022/12/11 15:28:43;;;;;;;;;;;;;;;;;;5057218;28;7378;-64
2022/12/11 15:34:23;;;;;;;;;;;;;;;;;;5056727;28;6680;-64
2022/12/11 15:36:49;;;;;;;;;;;;;;;;;;5056853;28;7126;-64
2022/12/11 15:39:15;;;;;;;;;;;;;;;;;;5057043;28;7349;-64
2022/12/11 15:41:41;;;;;;;;;;;;;;;;;;5056871;28;7110;-64
2022/12/11 15:46:46;;;;;;;;;;;;;;;;;;5056613;28;7003;-64
2022/12/11 15:49:12;;;;;;;;;;;;;;;;;;5056227;28;7148;-64
2022/12/11 15:51:43;;;;;;;;;;;;;;;;;;5057052;28;7207;-64
2022/12/11 15:54:09;;;;;;;;;;;;;;;;;;5056268;28;8162;-64
2022/12/11 15:56:43;;;;;;;;;;;;;;;;;;5056484;28;7094;-72
2022/12/11 15:59:10;;;;;;;;;;;;;;;;;;5051988;28;7200;-72
2022/12/11 16:01:39;;;;;;;;;;;;;;;;;;5053626;28;7186;-73
2022/12/11 16:04:05;;;;;;;;;;;;;;;;;;5036834;28;6936;-64
2022/12/11 16:07:01;;;;;;;;;;;;;;;;;;5035969;28;7098;-64
2022/12/11 16:09:27;;;;;;;;;;;;;;;;;;5036493;28;7883;-64
2022/12/11 16:11:53;;;;;;;;;;;;;;;;;;5019351;28;7239;-64
2022/12/11 16:14:18;;;;;;;;;;;;;;;;;;5037651;28;7116;-64
2022/12/11 16:16:44;;;;;;;;;;;;;;;;;;5036760;28;7033;-64
2022/12/11 16:22:27;;;;;;;;;;;;;;;;;;5036224;28;6939;-64
2022/12/11 16:24:54;;;;;;;;;;;;;;;;;;5036855;28;7140;-64
2022/12/11 16:27:22;;;;;;;;;;;;;;;;;;5036158;28;6831;-64
2022/12/11 16:29:48;;;;;;;;;;;;;;;;;;5036350;28;7091;-64
2022/12/11 16:32:14;;;;;;;;;;;;;;;;;;5036163;28;7437;-64
2022/12/11 16:34:39;;;;;;;;;;;;;;;;;;5036045;28;7127;-64
2022/12/11 16:37:08;;;;;;;;;;;;;;;;;;5035906;28;7509;-64
2022/12/11 16:39:35;;;;;;;;;;;;;;;;;;5036047;28;6883;-64
2022/12/11 16:42:02;;;;;;;;;;;;;;;;;;5036167;28;6821;-64
2022/12/11 16:44:39;;;;;;;;;;;;;;;;;;5036157;28;7229;-64
2022/12/11 16:47:05;;;;;;;;;;;;;;;;;;5035830;28;7176;-64
2022/12/11 16:49:38;;;;;;;;;;;;;;;;;;5042635;28;7187;-72
2022/12/11 16:52:03;;;;;;;;;;;;;;;;;;5055833;28;6932;-72
2022/12/11 16:54:49;;;;;;;;;;;;;;;;;;5055626;28;7166;-72
2022/12/11 16:57:15;;;;;;;;;;;;;;;;;;5055661;28;7225;-72
2022/12/11 16:59:43;;;;;;;;;;;;;;;;;;5055221;28;7359;-72
2022/12/11 17:02:09;;;;;;;;;;;;;;;;;;5055659;28;6826;-72
2022/12/11 17:04:39;;;;;;;;;;;;;;;;;;5055495;28;7109;-72
2022/12/11 17:07:22;;;;;;;;;;;;;;;;;;5038467;28;8482;-72
2022/12/11 17:09:47;;;;;;;;;;;;;;;;;;5055047;28;6976;-72
2022/12/11 17:12:24;;;;;;;;;;;;;;;;;;5055311;28;7366;-72
2022/12/11 17:14:50;;;;;;;;;;;;;;;;;;5055295;28;7129;-72
2022/12/11 17:17:15;;;;;;;;;;;;;;;;;;5055125;28;7894;-72
2022/12/11 17:19:41;;;;;;;;;;;;;;;;;;5054084;28;7006;-72
2022/12/11 17:22:06;;;;;;;;;;;;;;;;;;5038258;28;8567;-72
2022/12/11 17:24:32;;;;;;;;;;;;;;;;;;5056047;28;7163;-72
2022/12/11 17:26:59;;;;;;;;;;;;;;;;;;5054990;28;7079;-72
2022/12/11 17:29:42;;;;;;;;;;;;;;;;;;5055019;28;7136;-72
2022/12/11 17:32:08;;;;;;;;;;;;;;;;;;5055090;28;7197;-73
2022/12/11 17:34:33;;;;;;;;;;;;;;;;;;5054559;28;7203;-72
2022/12/11 17:37:22;;;;;;;;;;;;;;;;;;5055065;28;7034;-72
2022/12/11 17:39:48;;;;;;;;;;;;;;;;;;5054977;28;7120;-71
2022/12/11 17:42:14;;;;;;;;;;;;;;;;;;5055068;28;7094;-72
2022/12/11 17:44:44;;;;;;;;;;;;;;;;;;5054946;28;6916;-72
2022/12/11 17:47:10;;;;;;;;;;;;;;;;;;5055716;28;7111;-72
2022/12/11 17:49:38;;;;;;;;;;;;;;;;;;5054254;28;7190;-72
2022/12/11 17:55:07;;;;;;;;;;;;;;;;;;5054471;28;6820;-72
2022/12/11 17:57:33;;;;;;;;;;;;;;;;;;5054702;28;7527;-64
2022/12/11 18:00:05;;;;;;;;;;;;;;;;;;5054985;28;7012;-64
2022/12/11 18:02:33;;;;;;;;;;;;;;;;;;5054362;28;7405;-64
2022/12/11 18:04:59;;;;;;;;;;;;;;;;;;5054610;28;7519;-64
2022/12/11 18:07:25;;;;;;;;;;;;;;;;;;5054199;28;6947;-64
2022/12/11 18:09:50;;;;;;;;;;;;;;;;;;5054584;28;7170;-72
2022/12/11 18:12:16;;;;;;;;;;;;;;;;;;5054557;28;6887;-72
2022/12/11 18:15:17;;;;;;;;;;;;;;;;;;5054590;28;7207;-72
2022/12/11 18:17:43;;;;;;;;;;;;;;;;;;5054511;28;6843;-72
2022/12/11 18:20:11;;;;;;;;;;;;;;;;;;5054436;28;7120;-72
2022/12/11 18:22:47;;;;;;;;;;;;;;;;;;5055233;28;7399;-72
2022/12/11 18:25:13;;;;;;;;;;;;;;;;;;5055021;28;7114;-72
2022/12/11 18:27:39;;;;;;;;;;;;;;;;;;5047529;28;7384;-72
2022/12/11 18:30:06;;;;;;;;;;;;;;;;;;5035539;28;7276;-72
2022/12/11 18:32:32;;;;;;;;;;;;;;;;;;5038467;28;7326;-72
2022/12/11 18:34:57;;;;;;;;;;;;;;;;;;5020590;28;8392;-72
2022/12/11 18:37:23;;;;;;;;;;;;;;;;;;5020617;28;7432;-72
2022/12/11 18:39:49;;;;;;;;;;;;;;;;;;5038214;28;7086;-72
2022/12/11 18:42:15;;;;;;;;;;;;;;;;;;5038214;28;6864;-64
2022/12/11 18:44:43;;;;;;;;;;;;;;;;;;5038181;28;6996;-63
2022/12/11 18:47:12;;;;;;;;;;;;;;;;;;5038147;28;7251;-64
2022/12/11 18:49:37;;;;;;;;;;;;;;;;;;5043352;28;6959;-64
2022/12/11 18:55:23;;;;;;;;;;;;;;;;;;5057695;28;6924;-64
2022/12/11 18:57:49;;;;;;;;;;;;;;;;;;5058039;28;7739;-64
2022/12/11 19:00:15;;;;;;;;;;;;;;;;;;5057887;28;7348;-64
2022/12/11 19:02:52;;;;;;;;;;;;;;;;;;5057817;28;7095;-64
2022/12/11 19:05:18;;;;;;;;;;;;;;;;;;5058804;28;7058;-63
2022/12/11 19:07:44;;;;;;;;;;;;;;;;;;5059068;28;7089;-64
2022/12/11 19:10:09;;;;;;;;;;;;;;;;;;5057760;28;7057;-64
2022/12/11 19:12:35;;;;;;;;;;;;;;;;;;5057598;28;7134;-63
2022/12/11 19:15:08;;;;;;;;;;;;;;;;;;5057609;28;7294;-64
2022/12/11 19:17:33;;;;;;;;;;;;;;;;;;5057802;28;7403;-64
2022/12/11 19:20:07;;;;;;;;;;;;;;;;;;5057262;28;7198;-64
2022/12/11 19:22:33;;;;;;;;;;;;;;;;;;5057481;28;7117;-64
2022/12/11 19:24:59;;;;;;;;;;;;;;;;;;5058320;28;7163;-64
2022/12/11 19:27:25;;;;;;;;;;;;;;;;;;5057382;28;7081;-64
2022/12/11 19:29:51;;;;;;;;;;;;;;;;;;5057261;28;7180;-64
2022/12/11 19:35:19;;;;;;;;;;;;;;;;;;5056989;28;6673;-64
2022/12/11 19:37:44;;;;;;;;;;;;;;;;;;5057258;28;7316;-64
2022/12/11 19:40:10;;;;;;;;;;;;;;;;;;5057638;28;7121;-64
2022/12/11 19:42:36;;;;;;;;;;;;;;;;;;5055782;28;7775;-64
2022/12/11 19:45:11;;;;;;;;;;;;;;;;;;5057079;28;7239;-64
2022/12/11 19:47:36;;;;;;;;;;;;;;;;;;5057185;28;7383;-64